Time;durP1;ratioP1;P1;durP2;ratioP2;P2;SDS_P1;SDS_P2;PMS_P1;PMS_P2;Temp;Humidity;BMP_temperature;BMP_pressure;BME280_temperature;BME280_humidity;BME280_pressure;Samples;Min_cycle;Max_cycle;Signal;HPM_P1;HPM_P2
2023/12/11 00:00:21;;;;;;;4.80;3.90;;;;;;;12.17;56.93;101805.31;106867;1260;25347;-53
2023/12/11 00:02:48;;;;;;;4.20;3.20;;;;;;;12.19;56.98;101802.84;106800;1259;25347;-54
2023/12/11 00:05:15;;;;;;;4.30;3.10;;;;;;;12.21;57.21;101799.35;107065;1254;25347;-53
2023/12/11 00:07:43;;;;;;;4.20;3.20;;;;;;;12.22;57.29;101795.69;107097;1251;22988;-53
2023/12/11 00:10:10;;;;;;;4.60;3.40;;;;;;;12.25;57.40;101794.09;107126;1254;25338;-53
2023/12/11 00:12:37;;;;;;;5.80;3.20;;;;;;;12.26;57.35;101789.55;107017;1257;25497;-54
2023/12/11 00:15:05;;;;;;;4.20;3.70;;;;;;;12.29;57.57;101789.52;107131;1263;25407;-54
2023/12/11 00:17:32;;;;;;;6.50;3.70;;;;;;;12.32;57.58;101785.83;106922;1259;24621;-54
2023/12/11 00:20:00;;;;;;;4.50;3.30;;;;;;;12.35;57.62;101784.40;107148;1263;22639;-54
2023/12/11 00:22:27;;;;;;;5.90;4.30;;;;;;;12.38;57.84;101782.27;107047;1263;25347;-54
2023/12/11 00:24:54;;;;;;;7.60;4.40;;;;;;;12.41;57.88;101777.67;107138;1263;25375;-54
2023/12/11 00:27:21;;;;;;;13.00;4.60;;;;;;;12.46;57.72;101776.41;107111;1257;25356;-54
2023/12/11 00:29:49;;;;;;;6.00;4.30;;;;;;;12.49;57.52;101779.16;107059;1263;25497;-54
2023/12/11 00:32:16;;;;;;;10.10;5.30;;;;;;;12.50;57.47;101778.80;107125;1263;25372;-54
2023/12/11 00:34:43;;;;;;;6.60;4.50;;;;;;;12.51;57.44;101778.96;107112;1264;22598;-54
2023/12/11 00:37:10;;;;;;;5.90;4.60;;;;;;;12.52;57.30;101778.77;107184;1262;22633;-53
2023/12/11 00:39:38;;;;;;;9.10;4.50;;;;;;;12.54;57.32;101777.18;107129;1257;25497;-54
2023/12/11 00:42:05;;;;;;;5.50;4.50;;;;;;;12.56;57.37;101776.63;107101;1257;22530;-54
2023/12/11 00:44:32;;;;;;;5.80;4.40;;;;;;;12.58;57.42;101771.89;106930;1259;24191;-54
2023/12/11 00:47:02;;;;;;;8.70;5.20;;;;;;;12.62;57.34;101769.40;107108;1263;25372;-54
2023/12/11 00:49:29;;;;;;;6.20;4.40;;;;;;;12.64;57.38;101766.94;107167;1263;25334;-54
2023/12/11 00:51:56;;;;;;;7.60;4.20;;;;;;;12.67;57.27;101764.98;107062;1254;25375;-54
2023/12/11 00:54:24;;;;;;;7.90;4.60;;;;;;;12.70;57.25;101762.85;106830;1256;25392;-54
2023/12/11 00:56:51;;;;;;;9.80;5.00;;;;;;;12.71;57.20;101760.05;106831;1267;25424;-54
2023/12/11 00:59:18;;;;;;;7.10;5.10;;;;;;;12.73;57.27;101759.67;107045;1256;25338;-54
2023/12/11 01:01:45;;;;;;;8.30;5.60;;;;;;;12.76;57.24;101753.70;106838;1266;22527;-54
2023/12/11 01:04:12;;;;;;;9.00;5.30;;;;;;;12.75;57.31;101750.76;106858;1257;24478;-54
2023/12/11 01:06:40;;;;;;;7.90;5.20;;;;;;;12.78;57.35;101749.33;107122;1250;25287;-54
2023/12/11 01:09:06;;;;;;;7.90;5.00;;;;;;;12.91;57.09;101744.23;106822;1258;22520;-54
2023/12/11 01:11:33;;;;;;;8.70;5.50;;;;;;;12.81;57.44;101742.48;107041;1256;25363;-54
2023/12/11 01:14:00;;;;;;;7.20;4.90;;;;;;;12.73;57.77;101745.40;107029;1266;25353;-54
2023/12/11 01:16:27;;;;;;;10.80;6.30;;;;;;;12.90;57.40;101744.79;107166;1257;25487;-54
2023/12/11 01:18:54;;;;;;;7.90;5.90;;;;;;;12.70;58.00;101745.09;107058;1256;25350;-54
2023/12/11 01:21:22;;;;;;;8.50;5.70;;;;;;;12.62;58.41;101746.08;106510;1255;1003460;-54
2023/12/11 01:23:49;;;;;;;6.60;4.80;;;;;;;12.74;58.13;101745.20;106785;1274;25369;-54
2023/12/11 01:26:16;;;;;;;9.10;5.30;;;;;;;12.66;58.39;101747.23;107047;1263;25343;-54
2023/12/11 01:28:44;;;;;;;6.90;4.60;;;;;;;12.63;58.61;101745.88;106900;1267;25356;-54
2023/12/11 01:31:11;;;;;;;6.90;5.20;;;;;;;12.64;58.72;101743.61;106856;1259;25375;-54
2023/12/11 01:33:38;;;;;;;6.40;5.20;;;;;;;12.67;58.74;101737.48;106842;1266;25343;-54
2023/12/11 01:36:06;;;;;;;13.00;5.40;;;;;;;12.83;58.51;101738.80;107109;1258;25409;-55
2023/12/11 01:38:33;;;;;;;5.90;5.30;;;;;;;12.74;58.84;101732.67;107110;1264;25366;-54
2023/12/11 01:41:00;;;;;;;7.90;4.80;;;;;;;12.76;59.01;101729.50;106926;1259;25375;-54
2023/12/11 01:43:27;;;;;;;5.40;4.20;;;;;;;12.79;59.02;101735.89;106887;1256;25497;-54
2023/12/11 01:46:04;;;;;;;7.20;4.40;;;;;;;12.82;59.01;101729.59;107186;1263;22540;-54
2023/12/11 01:48:31;;;;;;;5.10;3.90;;;;;;;12.84;59.04;101729.71;106931;1258;25331;-54
2023/12/11 01:50:59;;;;;;;6.20;4.10;;;;;;;12.86;59.07;101726.02;107038;1257;22522;-55
2023/12/11 01:53:26;;;;;;;5.30;3.70;;;;;;;12.88;59.16;101724.42;106985;1257;25365;-54
2023/12/11 01:55:54;;;;;;;5.10;3.70;;;;;;;12.90;59.13;101726.15;107189;1257;25533;-54
2023/12/11 01:58:21;;;;;;;5.40;3.80;;;;;;;12.91;59.22;101727.70;107059;1265;25344;-54
2023/12/11 02:00:48;;;;;;;5.00;3.60;;;;;;;12.91;59.20;101727.17;107144;1257;25405;-54
2023/12/11 02:03:15;;;;;;;5.50;4.00;;;;;;;12.93;59.25;101724.70;107070;1263;25526;-54
2023/12/11 02:05:43;;;;;;;8.00;4.80;;;;;;;12.94;59.27;101719.98;107148;1263;25458;-54
2023/12/11 02:08:10;;;;;;;8.20;4.10;;;;;;;12.96;59.24;101719.61;107071;1258;22639;-54
2023/12/11 02:10:37;;;;;;;8.10;5.70;;;;;;;12.97;59.33;101721.15;107144;1258;25362;-54
2023/12/11 02:13:04;;;;;;;6.20;4.00;;;;;;;12.99;59.28;101718.17;107203;1263;25300;-55
2023/12/11 02:15:38;;;;;;;7.50;4.30;;;;;;;13.01;59.29;101718.99;107075;1258;25401;-54
2023/12/11 02:18:06;;;;;;;4.80;4.10;;;;;;;13.03;59.05;101721.06;107049;1256;25337;-54
2023/12/11 02:20:34;;;;;;;6.20;4.40;;;;;;;13.05;58.93;101718.27;107074;1254;22612;-54
2023/12/11 02:23:04;;;;;;;8.70;4.90;;;;;;;13.05;58.78;101712.52;107059;1257;25484;-54
2023/12/11 02:25:31;;;;;;;6.20;5.10;;;;;;;13.06;58.80;101715.29;107176;1264;25424;-54
2023/12/11 02:27:58;;;;;;;8.10;6.00;;;;;;;13.08;58.78;101717.71;107105;1258;25375;-54
2023/12/11 02:30:27;;;;;;;7.20;5.80;;;;;;;13.08;58.75;101721.00;107043;1263;25517;-54
2023/12/11 02:32:53;;;;;;;8.40;6.40;;;;;;;13.09;58.66;101723.08;107099;1263;24392;-54
2023/12/11 02:35:20;;;;;;;10.40;6.50;;;;;;;13.11;58.61;101724.47;107104;1263;25493;-54
2023/12/11 02:37:47;;;;;;;9.90;6.40;;;;;;;13.12;58.50;101730.89;106998;1257;25375;-54
2023/12/11 02:40:14;;;;;;;8.50;6.30;;;;;;;13.12;58.42;101731.77;107083;1257;25353;-54
2023/12/11 02:42:48;;;;;;;10.90;5.90;;;;;;;13.12;58.40;101733.15;107162;1263;25346;-54
2023/12/11 02:45:15;;;;;;;8.90;6.70;;;;;;;13.12;58.30;101737.85;106814;1269;25522;-54
2023/12/11 02:47:42;;;;;;;7.30;5.90;;;;;;;13.13;58.23;101743.24;107130;1256;25337;-54
2023/12/11 02:50:10;;;;;;;10.40;6.50;;;;;;;13.12;58.13;101743.42;107108;1260;25493;-54
2023/12/11 02:52:37;;;;;;;9.00;6.90;;;;;;;13.12;58.13;101746.21;106841;1263;25236;-54
2023/12/11 02:55:05;;;;;;;9.50;7.40;;;;;;;13.12;58.27;101741.69;107111;1267;25318;-55
2023/12/11 02:57:32;;;;;;;9.90;7.80;;;;;;;13.12;58.24;101745.00;107102;1255;25245;-54
2023/12/11 02:59:59;;;;;;;10.60;8.60;;;;;;;13.13;58.11;101743.93;106787;1260;25375;-54
2023/12/11 03:02:26;;;;;;;8.50;7.40;;;;;;;13.14;58.12;101746.52;106892;1267;25375;-54
2023/12/11 03:04:53;;;;;;;7.80;7.00;;;;;;;13.14;58.07;101748.61;107140;1263;25497;-54
2023/12/11 03:07:21;;;;;;;8.80;7.30;;;;;;;13.14;58.13;101757.67;106834;1257;25353;-54
2023/12/11 03:09:48;;;;;;;11.10;7.40;;;;;;;13.15;57.99;101760.80;107160;1266;25401;-54
2023/12/11 03:12:15;;;;;;;11.30;7.50;;;;;;;13.16;57.96;101756.42;106850;1267;25335;-54
2023/12/11 03:14:42;;;;;;;8.70;7.30;;;;;;;13.15;57.76;101755.55;106900;1267;25338;-55
2023/12/11 03:17:09;;;;;;;7.90;6.90;;;;;;;13.12;57.81;101752.84;107076;1264;24185;-54
2023/12/11 03:19:36;;;;;;;12.60;8.00;;;;;;;13.10;57.82;101747.64;107040;1264;25347;-54
2023/12/11 03:22:04;;;;;;;19.10;13.30;;;;;;;13.03;56.47;101751.20;107176;1263;25497;-54
2023/12/11 03:24:31;;;;;;;16.70;14.00;;;;;;;12.79;54.94;101750.17;106948;1257;25328;-54
2023/12/11 03:26:58;;;;;;;18.50;14.80;;;;;;;12.46;53.93;101753.27;107035;1267;25478;-55
2023/12/11 03:29:25;;;;;;;20.00;16.00;;;;;;;12.17;53.84;101759.05;107115;1263;25353;-54
2023/12/11 03:31:52;;;;;;;19.40;14.60;;;;;;;11.92;53.90;101762.64;107142;1264;25497;-54
2023/12/11 03:34:19;;;;;;;16.00;13.10;;;;;;;11.74;54.20;101762.50;107150;1257;25494;-54
2023/12/11 03:36:46;;;;;;;17.70;13.60;;;;;;;11.59;53.90;101760.89;107035;1260;25372;-54
2023/12/11 03:39:14;;;;;;;19.70;13.80;;;;;;;11.45;53.88;101760.32;106367;1261;1003643;-54
2023/12/11 03:41:41;;;;;;;19.10;13.20;;;;;;;11.39;53.72;101757.08;106999;1260;25362;-54
2023/12/11 03:44:08;;;;;;;16.80;12.40;;;;;;;11.21;54.17;101757.93;107047;1265;25494;-54
2023/12/11 03:46:35;;;;;;;18.20;13.90;;;;;;;11.13;54.24;101755.39;107118;1264;25343;-54
2023/12/11 03:49:02;;;;;;;18.00;13.80;;;;;;;11.08;54.30;101753.19;107103;1266;22540;-54
2023/12/11 03:51:29;;;;;;;18.40;13.30;;;;;;;11.14;53.90;101754.16;107070;1263;25355;-54
2023/12/11 03:53:57;;;;;;;17.60;12.80;;;;;;;11.03;53.82;101756.69;107090;1267;25407;-54
2023/12/11 03:56:24;;;;;;;17.90;13.30;;;;;;;10.89;54.18;101762.35;107130;1258;25542;-54
2023/12/11 03:58:51;;;;;;;17.60;12.80;;;;;;;10.82;54.26;101761.01;107204;1256;25375;-54
2023/12/11 04:01:18;;;;;;;21.60;13.30;;;;;;;10.89;53.82;101764.25;106301;1261;1003092;-54
2023/12/11 04:03:45;;;;;;;20.00;13.20;;;;;;;10.71;54.12;101765.26;106992;1266;25375;-54
2023/12/11 04:06:12;;;;;;;21.40;12.90;;;;;;;10.61;54.29;101763.05;107108;1257;25517;-54
2023/12/11 04:08:40;;;;;;;19.40;13.60;;;;;;;10.51;54.60;101757.04;107223;1261;25404;-54
2023/12/11 04:11:10;;;;;;;21.70;13.40;;;;;;;10.43;54.84;101755.52;107165;1256;23862;-54
2023/12/11 04:13:37;;;;;;;22.50;14.40;;;;;;;10.40;54.87;101753.81;107125;1267;25360;-54
2023/12/11 04:16:05;;;;;;;29.10;16.50;;;;;;;10.30;55.13;101758.88;107093;1267;25338;-54
2023/12/11 04:18:32;;;;;;;23.00;15.00;;;;;;;10.23;55.45;101762.73;106823;1266;25393;-54
2023/12/11 04:21:00;;;;;;;26.80;16.50;;;;;;;10.22;55.63;101767.25;107119;1267;25347;-54
2023/12/11 04:23:27;;;;;;;24.20;15.00;;;;;;;10.23;55.83;101766.89;107044;1257;25487;-54
2023/12/11 04:25:57;;;;;;;24.10;15.60;;;;;;;10.24;55.82;101756.66;106393;1254;1016246;-54
2023/12/11 04:28:23;;;;;;;24.40;16.40;;;;;;;10.22;55.70;101755.80;106879;1266;25347;-54
2023/12/11 04:30:51;;;;;;;22.80;15.30;;;;;;;10.17;55.99;101753.55;107072;1260;25534;-54
2023/12/11 04:33:18;;;;;;;23.00;15.20;;;;;;;10.19;56.20;101751.48;106294;1260;1002821;-54
2023/12/11 04:35:45;;;;;;;23.50;14.90;;;;;;;10.21;56.12;101748.86;107180;1263;24193;-54
2023/12/11 04:38:13;;;;;;;17.60;13.70;;;;;;;10.22;56.14;101757.36;106952;1265;25338;-54
2023/12/11 04:40:40;;;;;;;23.20;14.80;;;;;;;10.22;56.03;101751.30;107151;1266;23459;-54
2023/12/11 04:43:07;;;;;;;23.50;16.10;;;;;;;10.22;55.99;101745.92;107145;1257;24260;-54
2023/12/11 04:45:34;;;;;;;23.30;15.30;;;;;;;10.22;55.91;101746.27;107076;1267;25328;-55
2023/12/11 04:48:01;;;;;;;24.00;15.70;;;;;;;10.20;55.74;101743.84;107127;1263;22534;-54
2023/12/11 04:50:29;;;;;;;22.60;15.20;;;;;;;10.17;55.71;101740.05;107150;1261;25362;-54
2023/12/11 04:52:56;;;;;;;24.90;16.80;;;;;;;10.15;55.71;101743.01;107121;1255;25509;-54
2023/12/11 04:55:23;;;;;;;23.70;16.20;;;;;;;10.12;55.73;101738.17;107219;1266;25356;-54
2023/12/11 04:57:50;;;;;;;29.30;18.00;;;;;;;10.09;55.67;101737.11;107063;1256;25338;-54
2023/12/11 05:00:18;;;;;;;26.50;17.50;;;;;;;10.00;55.95;101734.71;106319;1257;1002946;-54
2023/12/11 05:02:45;;;;;;;28.70;18.00;;;;;;;9.98;56.04;101733.84;107141;1266;25348;-54
2023/12/11 05:05:14;;;;;;;28.20;18.80;;;;;;;9.99;56.12;101727.26;107129;1266;25344;-54
2023/12/11 05:07:42;;;;;;;31.10;19.60;;;;;;;10.02;56.10;101725.67;107052;1258;25357;-54
2023/12/11 05:10:09;;;;;;;28.40;20.20;;;;;;;10.04;56.07;101727.23;106854;1260;25423;-54
2023/12/11 05:12:36;;;;;;;30.90;20.40;;;;;;;10.42;54.84;101718.75;107086;1268;25347;-54
2023/12/11 05:15:04;;;;;;;29.80;19.80;;;;;;;10.40;54.48;101723.27;106349;1263;1005017;-54
2023/12/11 05:17:31;;;;;;;33.10;21.70;;;;;;;10.03;55.65;101728.79;107138;1263;25328;-54
2023/12/11 05:19:59;;;;;;;33.30;21.30;;;;;;;9.98;55.77;101728.64;107057;1272;25551;-54
2023/12/11 05:22:26;;;;;;;28.20;20.10;;;;;;;9.98;55.73;101727.95;107183;1263;25405;-54
2023/12/11 05:24:53;;;;;;;28.20;19.30;;;;;;;10.01;55.76;101724.47;107132;1260;25534;-54
2023/12/11 05:27:21;;;;;;;30.30;19.40;;;;;;;10.02;55.61;101725.33;107114;1256;25439;-54
2023/12/11 05:29:48;;;;;;;33.00;20.10;;;;;;;10.01;55.64;101726.38;106866;1267;25385;-54
2023/12/11 05:32:15;;;;;;;30.40;18.70;;;;;;;10.02;55.51;101728.10;107085;1266;22555;-55
2023/12/11 05:34:42;;;;;;;34.10;19.90;;;;;;;10.04;55.50;101729.66;107177;1263;23250;-54
2023/12/11 05:37:09;;;;;;;33.70;19.90;;;;;;;10.04;55.34;101729.66;107147;1265;25363;-54
2023/12/11 05:39:36;;;;;;;29.60;18.80;;;;;;;10.07;55.45;101727.91;107084;1270;25338;-54
2023/12/11 05:42:07;;;;;;;33.10;20.20;;;;;;;10.10;55.35;101725.66;107090;1257;25373;-54
2023/12/11 05:44:34;;;;;;;29.70;18.60;;;;;;;10.14;55.38;101730.70;107172;1266;25459;-54
2023/12/11 05:47:02;;;;;;;33.20;19.70;;;;;;;10.18;55.25;101731.89;106441;1264;1002863;-54
2023/12/11 05:49:29;;;;;;;27.90;17.90;;;;;;;10.22;55.39;101730.48;107110;1260;25363;-54
2023/12/11 05:51:56;;;;;;;28.20;17.70;;;;;;;10.24;55.16;101728.58;107087;1267;25353;-54
2023/12/11 05:54:23;;;;;;;28.20;17.50;;;;;;;10.24;55.06;101737.58;107063;1266;23879;-54
2023/12/11 05:56:50;;;;;;;25.90;16.90;;;;;;;10.28;55.00;101739.48;107123;1259;25338;-54
2023/12/11 05:59:17;;;;;;;25.10;15.70;;;;;;;10.30;54.94;101741.71;107162;1261;25399;-54
2023/12/11 06:01:44;;;;;;;24.00;15.80;;;;;;;10.30;54.74;101744.66;107131;1264;25258;-54
2023/12/11 06:04:12;;;;;;;23.60;16.20;;;;;;;10.28;54.77;101750.39;106890;1272;25360;-54
2023/12/11 06:06:39;;;;;;;25.20;15.70;;;;;;;10.28;54.80;101751.79;106754;1273;25488;-54
2023/12/11 06:09:06;;;;;;;22.90;15.60;;;;;;;10.28;54.79;101757.16;107099;1257;25338;-54
2023/12/11 06:11:33;;;;;;;19.50;15.90;;;;;;;10.27;54.77;101760.11;107052;1263;25415;-54
2023/12/11 06:14:00;;;;;;;19.80;15.20;;;;;;;10.29;54.87;101757.15;107159;1257;25347;-54
2023/12/11 06:16:27;;;;;;;20.50;15.70;;;;;;;10.32;54.88;101760.61;107140;1267;25410;-54
2023/12/11 06:18:54;;;;;;;20.60;15.10;;;;;;;10.33;54.74;101761.63;107132;1267;25497;-55
2023/12/11 06:21:22;;;;;;;19.20;14.60;;;;;;;10.32;54.75;101763.39;107066;1260;25405;-54
2023/12/11 06:23:49;;;;;;;16.30;13.90;;;;;;;10.32;54.85;101770.84;106867;1267;24256;-54
2023/12/11 06:26:32;;;;;;;18.70;14.60;;;;;;;10.35;54.74;101772.05;106848;1270;25420;-54
2023/12/11 06:29:00;;;;;;;21.70;15.10;;;;;;;10.38;54.74;101776.88;107065;1263;25339;-54
2023/12/11 06:31:28;;;;;;;19.60;14.50;;;;;;;10.41;54.62;101776.17;106395;1267;1003203;-54
2023/12/11 06:33:55;;;;;;;22.90;14.90;;;;;;;10.43;54.56;101786.58;106116;1267;1003726;-54
2023/12/11 06:36:23;;;;;;;18.90;14.30;;;;;;;10.46;54.56;101792.27;106065;1264;1003293;-54
2023/12/11 06:38:50;;;;;;;20.70;14.90;;;;;;;10.47;54.31;101789.84;107104;1267;25329;-54
2023/12/11 06:41:17;;;;;;;18.90;14.10;;;;;;;10.48;54.22;101799.39;107128;1266;25388;-54
2023/12/11 06:43:52;;;;;;;20.20;14.00;;;;;;;10.49;54.25;101810.30;107097;1258;25408;-54
2023/12/11 06:46:19;;;;;;;16.70;12.60;;;;;;;10.50;54.03;101807.35;107156;1264;25325;-54
2023/12/11 06:48:47;;;;;;;14.10;11.50;;;;;;;10.48;54.04;101803.54;106168;1267;1003711;-54
2023/12/11 06:51:17;;;;;;;15.80;12.30;;;;;;;10.46;53.84;101796.09;106386;1255;1003625;-54
2023/12/11 06:53:44;;;;;;;13.90;11.00;;;;;;;10.38;53.74;101799.77;106998;1258;25338;-54
2023/12/11 06:56:20;;;;;;;14.20;11.10;;;;;;;10.37;53.87;101799.09;107139;1258;25533;-54
2023/12/11 06:58:47;;;;;;;13.90;11.00;;;;;;;10.38;53.95;101793.89;107118;1256;24392;-54
2023/12/11 07:01:15;;;;;;;15.80;11.80;;;;;;;10.36;53.99;101800.13;107069;1264;25327;-54
2023/12/11 07:03:45;;;;;;;14.80;11.30;;;;;;;10.35;53.96;101807.95;107049;1258;25356;-54
2023/12/11 07:06:12;;;;;;;15.20;11.30;;;;;;;10.31;53.91;101802.06;107147;1254;25353;-54
2023/12/11 07:08:39;;;;;;;14.40;11.70;;;;;;;10.23;53.95;101798.81;107114;1264;25375;-54
2023/12/11 07:11:06;;;;;;;14.90;11.10;;;;;;;10.15;54.15;101799.01;107176;1254;25529;-55
2023/12/11 07:13:34;;;;;;;16.30;11.50;;;;;;;10.13;54.33;101797.28;106984;1263;25338;-54
2023/12/11 07:16:01;;;;;;;13.10;11.10;;;;;;;10.08;54.37;101791.20;106920;1267;25427;-54
2023/12/11 07:18:28;;;;;;;14.20;11.30;;;;;;;9.99;54.38;101797.11;107176;1261;25337;-54
2023/12/11 07:20:56;;;;;;;18.10;11.90;;;;;;;9.96;54.53;101796.94;107003;1265;25497;-53
2023/12/11 07:23:23;;;;;;;14.20;10.70;;;;;;;9.94;54.63;101796.77;107155;1263;25303;-54
2023/12/11 07:25:50;;;;;;;14.60;11.80;;;;;;;9.91;54.80;101802.34;107113;1254;25472;-54
2023/12/11 07:28:17;;;;;;;15.00;11.20;;;;;;;9.91;54.89;101795.57;107238;1264;25344;-54
2023/12/11 07:30:45;;;;;;;13.90;11.30;;;;;;;9.88;54.73;101802.52;107048;1257;25376;-54
2023/12/11 07:33:12;;;;;;;16.50;12.80;;;;;;;9.81;54.83;101802.35;107127;1251;23309;-54
2023/12/11 07:35:39;;;;;;;15.90;11.80;;;;;;;9.78;55.08;101794.73;106995;1258;25430;-54
2023/12/11 07:38:06;;;;;;;18.60;13.90;;;;;;;9.80;55.26;101790.05;106997;1264;25394;-54
2023/12/11 07:40:33;;;;;;;24.00;14.40;;;;;;;9.83;55.31;101787.79;107151;1257;25347;-54
2023/12/11 07:43:01;;;;;;;21.50;15.30;;;;;;;9.88;55.38;101792.63;106964;1270;25334;-54
2023/12/11 07:45:28;;;;;;;20.40;14.70;;;;;;;9.91;55.17;101793.50;106848;1254;25356;-54
2023/12/11 07:47:55;;;;;;;19.60;14.50;;;;;;;9.93;55.05;101801.46;107102;1264;22537;-53
2023/12/11 07:50:22;;;;;;;20.50;13.90;;;;;;;9.91;54.98;101799.20;106394;1263;1003328;-54
2023/12/11 07:52:49;;;;;;;22.30;14.00;;;;;;;9.92;55.07;101803.71;107033;1266;25424;-54
2023/12/11 07:55:16;;;;;;;20.00;14.00;;;;;;;9.97;55.12;101805.61;107117;1251;25343;-54
2023/12/11 07:57:44;;;;;;;20.50;14.60;;;;;;;10.01;55.07;101805.25;106792;1264;25382;-55
2023/12/11 08:00:11;;;;;;;22.00;14.90;;;;;;;10.07;55.05;101802.45;106838;1269;22530;-54
2023/12/11 08:02:39;;;;;;;22.10;14.20;;;;;;;10.32;54.57;101799.79;106803;1267;25375;-54
2023/12/11 08:05:06;;;;;;;21.80;15.40;;;;;;;10.29;54.47;101792.35;106390;1257;1003122;-54
2023/12/11 08:07:34;;;;;;;24.00;14.80;;;;;;;10.16;54.70;101793.28;106261;1261;1003410;-55
2023/12/11 08:10:02;;;;;;;21.40;13.90;;;;;;;10.11;54.63;101788.95;107087;1254;25382;-54
2023/12/11 08:12:30;;;;;;;18.20;12.60;;;;;;;10.04;54.71;101797.80;107094;1267;25872;-54
2023/12/11 08:14:57;;;;;;;15.80;11.20;;;;;;;10.03;55.04;101797.63;106099;1266;1003508;-54
2023/12/11 08:17:25;;;;;;;13.50;9.60;;;;;;;10.08;55.39;101790.33;107164;1267;25338;-55
2023/12/11 08:19:53;;;;;;;10.60;7.80;;;;;;;10.18;55.52;101784.78;107026;1270;25386;-54
2023/12/11 08:22:20;;;;;;;10.50;7.90;;;;;;;10.27;55.48;101779.88;106806;1269;22610;-54
2023/12/11 08:24:48;;;;;;;10.00;8.10;;;;;;;10.36;55.33;101779.14;107092;1267;25337;-54
2023/12/11 08:27:15;;;;;;;9.30;7.50;;;;;;;10.38;55.04;101779.13;106742;1266;25484;-54
2023/12/11 08:29:43;;;;;;;10.10;7.70;;;;;;;10.45;55.22;101775.29;106953;1264;25356;-54
2023/12/11 08:32:10;;;;;;;9.90;7.50;;;;;;;10.52;54.88;101767.96;106753;1270;25497;-54
2023/12/11 08:34:37;;;;;;;9.00;7.60;;;;;;;10.55;54.76;101763.61;106820;1269;25394;-54
2023/12/11 08:37:04;;;;;;;12.40;8.80;;;;;;;10.60;54.89;101762.72;107136;1260;25459;-54
2023/12/11 08:39:32;;;;;;;9.50;7.80;;;;;;;10.65;54.64;101755.73;107161;1259;25356;-54
2023/12/11 08:41:59;;;;;;;8.00;6.80;;;;;;;10.64;54.17;101750.37;107064;1267;25353;-54
2023/12/11 08:44:26;;;;;;;8.80;7.20;;;;;;;10.60;54.21;101747.10;107103;1260;25475;-54
2023/12/11 08:46:53;;;;;;;8.60;7.30;;;;;;;10.62;54.32;101747.96;107101;1251;25337;-54
2023/12/11 08:49:20;;;;;;;11.00;8.30;;;;;;;10.67;54.24;101746.17;107038;1263;22528;-54
2023/12/11 08:51:47;;;;;;;10.00;8.10;;;;;;;10.72;54.27;101742.85;107114;1254;25366;-54
2023/12/11 08:54:15;;;;;;;12.60;9.10;;;;;;;10.79;54.23;101744.88;106976;1263;25372;-55
2023/12/11 08:56:42;;;;;;;11.00;8.90;;;;;;;10.82;53.83;101742.43;106107;1270;1003721;-54
2023/12/11 08:59:09;;;;;;;11.80;9.10;;;;;;;10.82;53.77;101742.45;107109;1254;25347;-54
2023/12/11 09:01:37;;;;;;;11.20;9.00;;;;;;;10.80;53.63;101741.24;107073;1266;25414;-54
2023/12/11 09:04:05;;;;;;;13.90;10.30;;;;;;;10.78;53.58;101743.67;106805;1267;22526;-55
2023/12/11 09:06:32;;;;;;;13.20;10.10;;;;;;;10.76;53.69;101739.70;107040;1260;22641;-54
2023/12/11 09:08:59;;;;;;;13.60;10.30;;;;;;;10.78;53.83;101736.58;107077;1263;25375;-54
2023/12/11 09:11:26;;;;;;;13.50;10.30;;;;;;;10.80;53.71;101740.37;106940;1259;25350;-54
2023/12/11 09:13:54;;;;;;;14.40;11.00;;;;;;;10.81;53.62;101745.40;107057;1266;25385;-54
2023/12/11 09:16:21;;;;;;;16.10;11.80;;;;;;;10.81;53.67;101744.88;106860;1269;25347;-54
2023/12/11 09:18:48;;;;;;;14.50;11.80;;;;;;;10.84;53.83;101748.31;107152;1251;25347;-54
2023/12/11 09:21:16;;;;;;;15.40;11.80;;;;;;;10.89;54.03;101745.16;107145;1264;25494;-54
2023/12/11 09:23:43;;;;;;;14.80;11.80;;;;;;;10.96;54.06;101740.79;106764;1274;25337;-54
2023/12/11 09:26:10;;;;;;;15.60;11.50;;;;;;;11.03;53.95;101734.30;107068;1257;25350;-54
2023/12/11 09:28:39;;;;;;;15.90;11.30;;;;;;;11.11;54.00;101739.08;107170;1264;25347;-54
2023/12/11 09:31:19;;;;;;;14.50;10.90;;;;;;;11.18;53.79;101745.11;106416;1266;1002988;-54
2023/12/11 09:33:47;;;;;;;16.90;11.70;;;;;;;11.22;53.64;101744.02;106720;1273;25291;-54
2023/12/11 09:36:15;;;;;;;15.30;11.10;;;;;;;11.23;53.58;101742.10;107130;1257;25561;-54
2023/12/11 09:38:42;;;;;;;13.10;11.60;;;;;;;11.25;53.51;101744.88;107011;1272;25338;-54
2023/12/11 09:41:09;;;;;;;14.10;11.80;;;;;;;11.58;52.82;101743.33;107104;1255;25488;-54
2023/12/11 09:43:36;;;;;;;11.40;10.10;;;;;;;12.00;51.71;101734.05;107110;1270;25382;-54
2023/12/11 09:46:06;;;;;;;12.10;10.50;;;;;;;11.98;51.55;101728.84;107147;1263;25375;-54
2023/12/11 09:48:33;;;;;;;13.00;10.90;;;;;;;11.48;52.81;101731.97;107085;1250;22527;-54
2023/12/11 09:51:00;;;;;;;12.30;10.40;;;;;;;11.41;53.19;101729.09;107092;1266;22985;-55
2023/12/11 09:53:30;;;;;;;12.60;10.60;;;;;;;11.46;53.16;101726.25;107097;1251;25399;-54
2023/12/11 09:55:57;;;;;;;12.60;10.60;;;;;;;11.46;53.30;101720.35;107071;1255;25346;-54
2023/12/11 09:58:24;;;;;;;13.40;11.20;;;;;;;11.50;53.28;101706.60;107030;1254;25509;-54
2023/12/11 10:00:52;;;;;;;12.60;10.70;;;;;;;11.52;53.53;101708.13;106959;1254;25356;-54
2023/12/11 10:03:20;;;;;;;13.90;11.40;;;;;;;11.56;53.60;101711.39;106677;1267;24681;-54
2023/12/11 10:05:47;;;;;;;12.60;10.90;;;;;;;11.61;53.60;101710.13;107166;1270;25328;-54
2023/12/11 10:08:17;;;;;;;14.30;11.10;;;;;;;11.66;53.50;101696.35;107052;1266;25363;-54
2023/12/11 10:10:45;;;;;;;14.30;11.90;;;;;;;11.71;53.45;101694.22;107096;1266;25487;-54
2023/12/11 10:13:22;;;;;;;15.40;12.10;;;;;;;11.76;53.40;101685.46;107070;1266;25807;-54
2023/12/11 10:15:52;;;;;;;13.30;11.70;;;;;;;11.82;53.47;101680.88;107147;1266;24197;-54
2023/12/11 10:18:19;;;;;;;18.30;14.30;;;;;;;11.86;53.40;101683.62;106882;1267;25342;-54
2023/12/11 10:20:50;;;;;;;16.60;13.00;;;;;;;11.89;53.12;101683.92;106912;1267;25455;-54
2023/12/11 10:23:18;;;;;;;20.80;16.40;;;;;;;11.93;53.09;101675.17;106806;1266;25407;-54
2023/12/11 10:26:03;;;;;;;17.80;14.70;;;;;;;11.98;53.00;101674.59;106818;1269;24311;-54
2023/12/11 10:28:30;;;;;;;17.10;13.70;;;;;;;12.04;52.90;101668.60;107170;1254;25375;-54
2023/12/11 10:31:04;;;;;;;19.20;15.90;;;;;;;12.07;52.61;101661.25;107223;1266;25458;-54
2023/12/11 10:33:32;;;;;;;21.90;15.70;;;;;;;12.09;52.49;101655.83;107101;1266;24987;-54
2023/12/11 10:36:12;;;;;;;16.40;12.70;;;;;;;12.11;52.32;101656.15;106918;1258;25347;-54
2023/12/11 10:38:39;;;;;;;17.70;12.10;;;;;;;12.14;52.46;101657.16;107069;1274;25387;-54
2023/12/11 10:41:06;;;;;;;14.20;12.30;;;;;;;12.13;52.60;101650.73;107061;1264;25360;-54
2023/12/11 10:43:43;;;;;;;13.60;11.60;;;;;;;12.21;52.38;101642.43;107020;1261;25344;-54
2023/12/11 10:46:31;;;;;;;14.80;11.70;;;;;;;12.26;52.34;101644.29;107067;1267;25411;-54
2023/12/11 10:48:59;;;;;;;14.80;11.40;;;;;;;12.26;52.37;101640.13;107202;1262;25347;-54
2023/12/11 10:51:27;;;;;;;13.20;10.90;;;;;;;12.31;51.95;101627.35;107231;1251;25463;-53
2023/12/11 10:53:54;;;;;;;13.00;10.50;;;;;;;12.33;51.61;101619.47;106906;1268;25376;-54
2023/12/11 10:56:22;;;;;;;15.00;10.70;;;;;;;12.34;51.37;101617.89;106860;1267;25375;-54
2023/12/11 10:58:49;;;;;;;14.00;11.00;;;;;;;12.33;51.36;101614.27;107107;1269;25423;-54
2023/12/11 11:01:16;;;;;;;11.90;10.00;;;;;;;12.34;51.30;101614.41;107082;1263;25395;-54
2023/12/11 11:03:43;;;;;;;11.30;9.60;;;;;;;12.36;51.17;101620.30;107209;1266;25533;-54
2023/12/11 11:06:10;;;;;;;13.90;10.30;;;;;;;12.29;51.30;101619.71;107236;1266;26534;-53
2023/12/11 11:08:51;;;;;;;13.60;11.20;;;;;;;12.36;51.11;101615.96;107068;1256;22546;-54